Time;durP1;ratioP1;P1;durP2;ratioP2;P2;SDS_P1;SDS_P2;PMS_P1;PMS_P2;Temp;Humidity;BMP_temperature;BMP_pressure;BME280_temperature;BME280_humidity;BME280_pressure;Samples;Min_cycle;Max_cycle;Signal;HPM_P1;HPM_P2
2022/01/16 00:06:28;;;;;;;27.30;12.32;;;;;;;1.51;100.00;100617.44;12234942;19;20072;-80
2022/01/16 00:10:30;;;;;;;27.75;12.70;;;;;;;1.51;100.00;100625.59;12237580;19;20006;-79
2022/01/16 00:14:33;;;;;;;30.13;12.90;;;;;;;1.46;100.00;100646.97;12238613;19;20006;-80
2022/01/16 00:18:48;;;;;;;25.83;11.30;;;;;;;1.50;100.00;100649.19;12239660;19;20054;-79
2022/01/16 00:22:51;;;;;;;25.63;11.82;;;;;;;1.50;100.00;100653.78;12233566;19;20006;-79
2022/01/16 00:26:52;;;;;;;27.23;12.65;;;;;;;1.51;100.00;100645.44;12238377;19;20062;-80
2022/01/16 00:30:54;;;;;;;25.50;11.38;;;;;;;1.52;100.00;100614.56;12235926;19;20086;-80
2022/01/16 00:34:56;;;;;;;28.02;14.45;;;;;;;1.57;100.00;100603.19;12230736;19;20007;-81
2022/01/16 00:38:58;;;;;;;29.50;14.00;;;;;;;1.60;100.00;100597.41;12238844;19;20029;-79
2022/01/16 00:43:00;;;;;;;31.60;15.07;;;;;;;1.60;100.00;100597.41;12242000;19;20068;-79
2022/01/16 00:47:02;;;;;;;39.85;16.58;;;;;;;1.62;100.00;100606.25;12234680;19;20300;-80
2022/01/16 00:51:04;;;;;;;36.42;15.10;;;;;;;1.56;100.00;100632.22;12230686;19;20034;-80
2022/01/16 00:55:06;;;;;;;40.40;16.40;;;;;;;1.52;100.00;100630.03;12231709;19;20041;-79
2022/01/16 00:59:08;;;;;;;42.63;15.93;;;;;;;1.54;100.00;100638.84;12237871;19;20578;-80
2022/01/16 01:03:11;;;;;;;46.70;19.50;;;;;;;1.54;100.00;100639.69;12234024;19;20040;-79
2022/01/16 01:07:13;;;;;;;50.25;18.80;;;;;;;1.54;100.00;100663.28;12231746;19;20591;-78
2022/01/16 01:11:17;;;;;;;53.85;17.60;;;;;;;1.53;100.00;100642.59;12238338;19;20550;-79
2022/01/16 01:15:26;;;;;;;46.72;19.27;;;;;;;1.54;100.00;100614.38;12234823;19;20548;-79
2022/01/16 01:19:32;;;;;;;53.20;19.77;;;;;;;1.55;100.00;100640.56;12230864;19;20070;-80
2022/01/16 01:23:34;;;;;;;55.83;19.38;;;;;;;1.61;100.00;100634.44;12237880;19;20059;-79
2022/01/16 01:27:35;;;;;;;56.83;18.10;;;;;;;1.60;100.00;100560.22;12238584;19;20010;-80
2022/01/16 01:31:37;;;;;;;48.17;18.48;;;;;;;1.56;100.00;100528.16;12236423;19;20010;-79
2022/01/16 01:35:40;;;;;;;63.58;22.75;;;;;;;1.52;100.00;100533.09;12231052;19;20014;-80
2022/01/16 01:39:41;;;;;;;60.35;19.77;;;;;;;1.46;100.00;100519.34;12234834;19;20015;-79
2022/01/16 01:52:06;;;;;;;66.35;21.15;;;;;;;1.38;100.00;100609.00;12240616;19;20018;-79
2022/01/16 01:56:10;;;;;;;65.27;21.57;;;;;;;1.38;100.00;100622.56;12240276;19;20006;-79
2022/01/16 02:00:17;;;;;;;68.95;23.02;;;;;;;1.37;100.00;100638.00;12222990;19;20006;-82
2022/01/16 02:04:19;;;;;;;69.07;22.40;;;;;;;1.40;100.00;100623.22;12237978;19;20010;-79
2022/01/16 02:08:21;;;;;;;51.47;15.85;;;;;;;1.41;100.00;100627.66;12242951;19;20007;-80
2022/01/16 02:12:23;;;;;;;70.63;21.10;;;;;;;1.46;100.00;100623.41;12244080;19;20014;-80
2022/01/16 02:28:00;;;;;;;63.35;21.88;;;;;;;1.55;100.00;100635.13;12246047;19;20013;-79
2022/01/16 02:38:22;;;;;;;70.55;21.23;;;;;;;1.47;100.00;100619.66;12247183;19;20011;-81
2022/01/16 02:42:27;;;;;;;92.47;23.30;;;;;;;1.44;100.00;100608.31;12244953;19;20014;-83
2022/01/16 02:50:32;;;;;;;76.22;23.50;;;;;;;1.38;100.00;100611.69;12243596;19;20121;-79
2022/01/16 02:54:37;;;;;;;75.60;25.25;;;;;;;1.42;100.00;100605.75;12246737;19;20018;-82
2022/01/16 02:58:40;;;;;;;77.15;23.17;;;;;;;1.33;100.00;100588.59;12247712;19;20483;-80
2022/01/16 03:02:42;;;;;;;66.40;24.02;;;;;;;1.31;100.00;100571.66;12242265;19;20058;-80
2022/01/16 03:06:44;;;;;;;66.57;20.98;;;;;;;1.29;100.00;100570.97;12239185;19;20391;-79
2022/01/16 03:15:07;;;;;;;64.22;20.67;;;;;;;1.30;100.00;100563.66;12242919;19;20383;-79
2022/01/16 03:23:29;;;;;;;78.05;25.70;;;;;;;1.19;100.00;100562.16;12243079;19;20013;-79
2022/01/16 03:27:31;;;;;;;86.30;26.10;;;;;;;1.17;100.00;100550.63;12240822;19;20025;-80
2022/01/16 03:31:33;;;;;;;83.43;26.65;;;;;;;1.19;100.00;100559.44;12245290;19;20006;-79
2022/01/16 03:35:35;;;;;;;71.85;27.30;;;;;;;1.19;100.00;100555.84;12242437;19;20018;-79
2022/01/16 03:39:38;;;;;;;87.47;28.20;;;;;;;1.23;100.00;100559.94;12223441;19;20369;-79
2022/01/16 03:43:39;;;;;;;89.53;28.00;;;;;;;1.16;100.00;100551.66;12237083;19;20045;-80
2022/01/16 03:47:41;;;;;;;80.80;25.75;;;;;;;1.14;100.00;100545.53;12242524;19;20025;-79
2022/01/16 03:51:45;;;;;;;78.40;27.25;;;;;;;1.13;100.00;100557.38;12229886;19;20002;-80
2022/01/16 03:55:47;;;;;;;73.10;24.73;;;;;;;1.14;100.00;100564.53;12239132;19;20107;-80
2022/01/16 03:59:49;;;;;;;68.67;25.67;;;;;;;1.12;100.00;100569.28;12229059;19;20010;-80
2022/01/16 04:03:55;;;;;;;68.55;26.23;;;;;;;1.12;100.00;100553.00;12237807;19;20011;-78
2022/01/16 04:07:58;;;;;;;69.00;24.92;;;;;;;1.13;100.00;100550.13;12235978;19;20038;-80
2022/01/16 04:12:00;;;;;;;72.28;25.20;;;;;;;1.06;100.00;100538.22;12241830;19;20495;-79
2022/01/16 04:16:02;;;;;;;82.53;28.42;;;;;;;1.05;100.00;100554.69;12238282;19;20006;-80
2022/01/16 04:20:05;;;;;;;74.75;25.52;;;;;;;1.11;100.00;100544.00;12233077;19;20015;-79
2022/01/16 04:24:06;;;;;;;;;;;;;;;1.11;100.00;100552.16;12233378;19;20030;-79
2022/01/16 04:28:08;;;;;;;67.38;23.40;;;;;;;1.13;100.00;100543.81;12230373;19;19978;-82
2022/01/16 04:32:10;;;;;;;65.30;22.88;;;;;;;1.11;100.00;100535.03;12236884;19;20014;-78
2022/01/16 04:36:12;;;;;;;68.22;24.10;;;;;;;1.08;100.00;100538.06;12226389;19;20034;-81
2022/01/16 04:40:15;;;;;;;66.73;22.77;;;;;;;1.08;100.00;100519.06;12234202;19;20022;-79
2022/01/16 04:44:16;;;;;;;67.25;22.40;;;;;;;1.03;100.00;100521.44;12234069;19;20010;-80
2022/01/16 04:48:18;;;;;;;73.78;24.50;;;;;;;1.03;100.00;100529.59;12238800;19;20014;-79
2022/01/16 04:52:20;;;;;;;68.30;23.92;;;;;;;1.03;100.00;100522.28;12237270;19;20014;-79
2022/01/16 04:56:21;;;;;;;90.97;27.38;;;;;;;1.01;100.00;100515.31;12237873;19;20007;-80
2022/01/16 05:00:23;;;;;;;81.63;24.20;;;;;;;0.99;100.00;100526.38;12230579;19;20050;-79
2022/01/16 05:04:25;;;;;;;85.68;26.92;;;;;;;0.97;100.00;100527.56;12232124;19;20039;-79
2022/01/16 05:08:28;;;;;;;75.90;26.60;;;;;;;0.96;100.00;100539.44;12233377;19;20007;-81
2022/01/16 05:12:35;;;;;;;69.38;23.88;;;;;;;0.97;100.00;100533.81;12237585;19;20023;-79
2022/01/16 05:16:37;;;;;;;72.38;25.52;;;;;;;0.94;100.00;100527.91;12239826;19;20023;-78
2022/01/16 05:20:39;;;;;;;72.45;22.52;;;;;;;0.97;100.00;100543.84;12231998;19;20014;-78
2022/01/16 05:24:41;;;;;;;79.97;27.02;;;;;;;0.98;100.00;100548.22;12231793;19;20006;-79
2022/01/16 05:28:43;;;;;;;77.47;26.15;;;;;;;0.97;100.00;100552.81;12242896;19;20034;-79
2022/01/16 05:32:44;;;;;;;77.25;26.15;;;;;;;0.97;100.00;100552.81;12238359;19;20387;-83
2022/01/16 05:36:46;;;;;;;75.63;25.20;;;;;;;0.97;100.00;100549.25;12230020;19;20038;-79
2022/01/16 05:40:48;;;;;;;65.25;25.40;;;;;;;0.98;100.00;100557.25;12234352;19;20011;-81
2022/01/16 05:44:50;;;;;;;65.20;23.42;;;;;;;0.88;100.00;100562.81;12231267;19;20034;-79
2022/01/16 05:48:52;;;;;;;74.20;25.88;;;;;;;0.93;100.00;100572.34;12238674;19;20007;-79
2022/01/16 05:52:54;;;;;;;65.22;22.05;;;;;;;0.99;100.00;100563.53;12239386;19;20019;-79
2022/01/16 05:56:56;;;;;;;71.10;23.40;;;;;;;1.02;100.00;100561.31;12237277;19;20014;-79
2022/01/16 06:00:57;;;;;;;60.63;21.35;;;;;;;1.04;100.00;100558.41;12231742;19;20002;-79
2022/01/16 06:04:59;;;;;;;53.88;20.63;;;;;;;1.08;100.00;100563.34;12223635;19;20025;-79
2022/01/16 06:09:00;;;;;;;56.17;22.63;;;;;;;1.06;100.00;100559.94;12238512;19;20043;-79
2022/01/16 06:13:04;;;;;;;47.92;18.88;;;;;;;0.99;100.00;100569.78;12241909;19;20007;-80
2022/01/16 06:17:06;;;;;;;54.10;19.80;;;;;;;1.00;100.00;100576.91;12226159;19;20085;-80
2022/01/16 06:21:08;;;;;;;52.40;18.60;;;;;;;0.89;100.00;100579.94;12231442;19;20034;-80
2022/01/16 06:25:10;;;;;;;57.75;19.88;;;;;;;0.97;100.00;100595.41;12232229;19;20426;-80
2022/01/16 06:29:12;;;;;;;51.10;19.10;;;;;;;0.95;100.00;100617.25;12228053;19;20010;-79
2022/01/16 06:33:14;;;;;;;38.88;16.38;;;;;;;0.92;100.00;100617.59;12230276;19;20017;-80
2022/01/16 06:37:15;;;;;;;37.15;15.88;;;;;;;0.87;100.00;100631.69;12230350;19;20063;-81
2022/01/16 06:41:17;;;;;;;35.03;14.77;;;;;;;0.75;100.00;100630.31;12225847;19;20023;-81
2022/01/16 06:45:18;;;;;;;41.65;14.75;;;;;;;0.77;100.00;100625.53;12223326;19;20006;-80
2022/01/16 06:49:20;;;;;;;40.90;16.10;;;;;;;0.76;100.00;100631.16;12226425;19;20010;-81
2022/01/16 06:53:22;;;;;;;43.53;16.52;;;;;;;0.74;100.00;100642.16;12246828;19;20077;-81
2022/01/16 06:57:23;;;;;;;40.15;16.40;;;;;;;0.75;100.00;100635.72;12239085;19;20495;-80
2022/01/16 07:01:26;;;;;;;42.10;15.27;;;;;;;0.84;100.00;100631.19;12242274;19;20345;-81
2022/01/16 07:05:32;;;;;;;37.95;14.32;;;;;;;0.79;100.00;100642.50;12233664;19;20003;-82
2022/01/16 07:09:33;;;;;;;32.42;13.85;;;;;;;0.79;100.00;100645.22;12242209;19;20011;-81
2022/01/16 07:13:35;;;;;;;36.00;12.77;;;;;;;0.78;100.00;100654.38;12242546;19;20016;-84
2022/01/16 07:17:37;;;;;;;35.63;13.27;;;;;;;0.79;100.00;100663.38;12235172;19;20011;-83
2022/01/16 07:21:38;;;;;;;38.25;16.20;;;;;;;0.77;100.00;100657.25;12237969;19;20095;-81
2022/01/16 07:25:41;;;;;;;50.22;17.73;;;;;;;0.77;100.00;100678.97;12243117;19;20007;-82
2022/01/16 07:29:46;;;;;;;42.83;16.48;;;;;;;0.80;100.00;100679.47;12240824;19;20041;-79
2022/01/16 07:33:50;;;;;;;;;;;;;;;0.71;100.00;100679.63;12240021;19;20102;-83
2022/01/16 07:37:52;;;;;;;33.90;12.93;;;;;;;0.71;100.00;100696.75;12245056;19;20336;-80
2022/01/16 07:41:53;;;;;;;37.47;15.10;;;;;;;0.76;100.00;100683.53;12238363;19;20014;-81
2022/01/16 07:45:55;;;;;;;49.40;18.35;;;;;;;0.75;100.00;100703.56;12243529;19;20033;-81
2022/01/16 07:49:56;;;;;;;43.05;17.38;;;;;;;0.64;100.00;100709.28;12241911;19;20045;-84
2022/01/16 07:54:19;;;;;;;48.65;16.50;;;;;;;0.75;100.00;100716.28;12245657;19;20030;-80
2022/01/16 07:58:20;;;;;;;44.93;16.20;;;;;;;0.83;100.00;100711.72;12245329;19;20342;-80
2022/01/16 08:02:28;;;;;;;39.72;17.27;;;;;;;0.80;100.00;100722.88;12245906;19;20007;-81
2022/01/16 08:06:29;;;;;;;39.28;15.68;;;;;;;0.79;100.00;100725.78;12236178;19;20014;-84
2022/01/16 08:10:31;;;;;;;44.45;18.45;;;;;;;0.83;100.00;100735.28;12238079;19;20485;-80
2022/01/16 08:14:34;;;;;;;45.40;18.60;;;;;;;0.78;100.00;100722.22;12242024;19;20463;-81
2022/01/16 08:18:35;;;;;;;45.50;18.63;;;;;;;0.79;100.00;100728.50;12240195;19;20087;-80
2022/01/16 08:22:38;;;;;;;52.63;19.98;;;;;;;0.72;100.00;100712.03;12236726;19;20030;-79
2022/01/16 08:26:40;;;;;;;53.72;20.42;;;;;;;0.76;100.00;100720.69;12232222;19;20006;-80
2022/01/16 08:30:42;;;;;;;57.03;22.05;;;;;;;0.78;100.00;100724.94;12218066;19;20564;-79
2022/01/16 08:34:43;;;;;;;56.25;22.65;;;;;;;0.80;100.00;100727.47;12243554;19;20030;-79
2022/01/16 08:38:45;;;;;;;62.23;23.93;;;;;;;0.83;100.00;100710.84;12244453;19;20044;-79
2022/01/16 08:42:47;;;;;;;58.15;20.40;;;;;;;0.82;100.00;100726.28;12246808;19;20070;-79
2022/01/16 08:46:49;;;;;;;54.83;21.17;;;;;;;0.89;100.00;100729.19;12195833;19;20428;-80
2022/01/16 08:50:51;;;;;;;62.20;21.30;;;;;;;0.83;100.00;100735.28;12246095;19;20352;-79
2022/01/16 08:54:52;;;;;;;61.78;20.65;;;;;;;0.83;100.00;100747.00;12248212;19;20101;-78
2022/01/16 08:58:55;;;;;;;64.47;23.30;;;;;;;0.83;100.00;100759.69;12245376;19;20018;-79
2022/01/16 09:02:57;;;;;;;54.53;21.43;;;;;;;0.80;100.00;100754.59;12241451;19;20007;-79
2022/01/16 09:06:59;;;;;;;66.63;23.90;;;;;;;0.73;100.00;100759.81;12240339;19;20030;-80
2022/01/16 09:11:02;;;;;;;67.65;23.65;;;;;;;0.64;100.00;100758.09;12212351;19;74244;-78
2022/01/16 09:15:10;;;;;;;73.47;24.65;;;;;;;0.63;100.00;100772.69;12239600;19;20027;-79
2022/01/16 09:19:11;;;;;;;72.60;26.63;;;;;;;0.65;100.00;100778.78;12246238;19;20058;-80
2022/01/16 09:23:13;;;;;;;75.20;27.13;;;;;;;0.61;100.00;100782.84;12244672;19;20014;-80
2022/01/16 09:27:18;;;;;;;73.95;27.23;;;;;;;0.65;100.00;100785.06;12237025;19;20007;-80
2022/01/16 09:31:20;;;;;;;73.53;25.42;;;;;;;0.68;100.00;100790.16;12245957;19;20007;-80
2022/01/16 09:35:22;;;;;;;54.10;18.98;;;;;;;0.66;100.00;100804.91;12246460;19;20015;-79
2022/01/16 09:42:38;;;;;;;74.20;26.45;;;;;;;0.63;100.00;100806.06;15364166;19;20061;-80
2022/01/16 09:47:41;;;;;;;80.28;26.88;;;;;;;0.66;100.00;100810.34;15377155;19;20010;-80
2022/01/16 09:52:45;;;;;;;70.63;23.90;;;;;;;0.68;100.00;100816.44;15381963;19;20478;-80
2022/01/16 09:57:47;;;;;;;77.68;25.63;;;;;;;0.77;100.00;100820.88;15318384;19;142341;-80
2022/01/16 10:02:49;;;;;;;78.80;24.73;;;;;;;0.77;100.00;100834.44;15335903;19;112324;-80
2022/01/16 10:07:57;;;;;;;82.45;27.77;;;;;;;0.76;100.00;100838.19;15373429;19;20358;-80
2022/01/16 10:13:07;;;;;;;73.28;25.38;;;;;;;0.85;100.00;100841.78;15372235;19;20027;-80
2022/01/16 10:18:09;;;;;;;84.10;25.65;;;;;;;1.02;100.00;100838.16;15372166;19;20039;-80
2022/01/16 10:23:21;;;;;;;72.78;23.52;;;;;;;1.16;100.00;100835.81;15381043;19;20006;-79
2022/01/16 10:28:25;;;;;;;64.53;24.17;;;;;;;1.24;100.00;100822.28;15377904;19;20014;-79
2022/01/16 10:33:32;;;;;;;65.25;24.02;;;;;;;1.31;100.00;100824.19;15369625;19;20014;-79
2022/01/16 10:38:33;;;;;;;62.92;21.80;;;;;;;1.32;100.00;100819.59;15368010;19;20022;-80
2022/01/16 10:43:39;;;;;;;50.90;21.27;;;;;;;1.25;100.00;100834.84;15368068;19;20031;-80
2022/01/16 10:48:40;;;;;;;52.05;19.38;;;;;;;1.07;100.00;100832.22;15366920;19;20086;-80
2022/01/16 10:53:42;;;;;;;46.25;18.52;;;;;;;1.07;100.00;100848.50;15317078;19;20468;-81
2022/01/16 10:58:45;;;;;;;50.22;18.48;;;;;;;1.16;100.00;100833.97;15306498;19;20007;-79
2022/01/16 11:03:53;;;;;;;45.38;20.13;;;;;;;1.08;100.00;100829.34;15310418;19;20378;-80
2022/01/16 11:08:57;;;;;;;47.97;18.50;;;;;;;1.05;100.00;100836.97;15312483;19;20468;-80
2022/01/16 11:14:04;;;;;;;48.38;18.20;;;;;;;1.01;100.00;100817.47;15307622;19;20010;-80
2022/01/16 11:19:08;;;;;;;48.75;19.30;;;;;;;0.96;100.00;100819.81;15312306;19;20497;-79
2022/01/16 11:24:24;;;;;;;49.15;19.15;;;;;;;1.02;100.00;100818.31;15308361;19;20036;-79
2022/01/16 11:29:28;;;;;;;47.10;19.45;;;;;;;1.15;100.00;100821.41;15310405;19;20066;-79
2022/01/16 11:34:30;;;;;;;;;;;;;;;1.16;100.00;100831.25;15305120;19;20006;-81
2022/01/16 11:39:36;;;;;;;49.25;18.83;;;;;;;1.20;100.00;100826.34;15308840;19;19915;-79
2022/01/16 11:44:50;;;;;;;51.20;20.40;;;;;;;1.20;100.00;100839.94;15293393;19;20011;-78
2022/01/16 11:50:06;;;;;;;50.83;19.30;;;;;;;1.16;100.00;100836.69;15295736;19;20508;-77
2022/01/16 11:55:12;;;;;;;48.85;18.88;;;;;;;1.23;100.00;100831.44;15302984;19;20006;-78
2022/01/16 12:00:16;;;;;;;48.95;19.80;;;;;;;1.35;100.00;100828.25;15289054;19;20027;-78
2022/01/16 12:05:28;;;;;;;53.78;20.33;;;;;;;1.34;100.00;100829.28;15292969;19;20361;-78
2022/01/16 12:10:35;;;;;;;55.05;21.77;;;;;;;1.27;100.00;100833.66;15299537;19;20005;-78
2022/01/16 12:15:37;;;;;;;50.72;21.00;;;;;;;1.34;100.00;100842.03;15300833;19;20401;-78
2022/01/16 12:20:38;;;;;;;50.90;19.45;;;;;;;1.37;100.00;100844.41;15292911;19;20014;-79
2022/01/16 12:25:40;;;;;;;53.42;19.73;;;;;;;1.46;100.00;100839.81;15299423;19;20521;-79
2022/01/16 12:30:51;;;;;;;50.15;19.83;;;;;;;1.50;100.00;100828.47;15299809;19;20537;-78
2022/01/16 12:35:58;;;;;;;48.80;20.17;;;;;;;1.73;100.00;100825.97;15296343;19;20039;-79
2022/01/16 12:41:46;;;;;;;43.83;18.95;;;;;;;1.79;100.00;100810.88;15296954;19;22082;-80
2022/01/16 12:46:54;;;;;;;42.40;19.05;;;;;;;1.95;100.00;100818.19;15292079;19;20011;-79
2022/01/16 12:51:57;;;;;;;45.25;20.58;;;;;;;2.13;100.00;100804.41;15299048;19;20354;-78
2022/01/16 12:57:01;;;;;;;45.42;19.88;;;;;;;2.26;100.00;100812.91;15301338;19;20515;-81
2022/01/16 13:02:18;;;;;;;42.70;20.63;;;;;;;2.34;100.00;100822.94;15294337;19;20018;-79
2022/01/16 13:07:20;;;;;;;40.28;17.25;;;;;;;2.49;99.78;100813.03;15298284;19;20014;-80
2022/01/16 13:12:22;;;;;;;43.55;18.55;;;;;;;2.71;98.13;100822.38;15305152;19;20014;-80
2022/01/16 13:17:24;;;;;;;46.03;19.77;;;;;;;2.67;97.15;100818.28;15300919;19;20036;-78
2022/01/16 13:22:28;;;;;;;38.75;17.48;;;;;;;2.69;97.82;100818.97;15297063;19;20023;-79
2022/01/16 13:27:39;;;;;;;34.83;17.50;;;;;;;2.66;97.87;100822.88;15297394;19;20003;-78
2022/01/16 13:32:42;;;;;;;41.72;17.63;;;;;;;2.68;97.86;100830.88;15298569;19;20031;-79
2022/01/16 13:37:46;;;;;;;39.33;18.50;;;;;;;2.62;97.60;100826.13;15280936;19;20014;-78
2022/01/16 13:42:51;;;;;;;;;;;;;;;2.76;97.22;100824.56;15294446;19;20031;-80
2022/01/16 13:48:12;;;;;;;36.75;18.02;;;;;;;2.84;97.29;100849.88;15294236;19;20337;-80
2022/01/16 13:53:16;;;;;;;36.65;17.38;;;;;;;2.82;96.58;100848.34;15291417;19;20014;-79
2022/01/16 13:58:29;;;;;;;38.75;16.80;;;;;;;2.79;96.74;100845.97;15291434;19;20054;-79
2022/01/16 14:03:31;;;;;;;33.67;16.42;;;;;;;2.72;96.92;100846.69;15273791;19;20076;-79
2022/01/16 14:08:36;;;;;;;41.13;17.02;;;;;;;2.78;96.91;100836.97;15278526;19;19998;-80
2022/01/16 14:13:55;;;;;;;44.97;19.25;;;;;;;2.88;96.33;100848.50;15284526;19;20509;-79
2022/01/16 14:23:58;;;;;;;45.88;19.15;;;;;;;2.83;95.86;100869.13;15303205;19;20032;-79
2022/01/16 14:29:00;;;;;;;44.03;19.08;;;;;;;2.63;96.40;100880.38;15313518;19;20014;-79
2022/01/16 14:34:02;;;;;;;45.45;19.83;;;;;;;2.54;96.94;100870.53;15313470;19;20007;-78
2022/01/16 14:39:03;;;;;;;43.05;19.63;;;;;;;2.56;97.37;100890.25;15306041;19;20066;-79
2022/01/16 14:44:05;;;;;;;47.40;20.75;;;;;;;2.45;97.62;100915.94;15304506;19;20010;-80
2022/01/16 14:49:07;;;;;;;44.05;19.27;;;;;;;2.38;98.26;100916.75;15303358;19;20010;-79
2022/01/16 14:54:10;;;;;;;41.20;18.60;;;;;;;2.31;99.04;100913.03;15309777;19;20078;-79
2022/01/16 14:59:13;;;;;;;45.10;19.30;;;;;;;2.19;100.00;100913.34;15308966;19;20018;-79
2022/01/16 15:04:15;;;;;;;43.97;21.13;;;;;;;2.11;100.00;100915.22;15307164;19;20032;-78
2022/01/16 15:09:17;;;;;;;48.10;21.70;;;;;;;2.03;100.00;100933.22;15304087;19;20279;-77
2022/01/16 15:14:19;;;;;;;48.60;20.38;;;;;;;1.99;100.00;100936.44;15307378;19;20553;-78
2022/01/16 15:19:21;;;;;;;41.30;17.73;;;;;;;1.99;100.00;100933.72;15297025;19;20015;-78
2022/01/16 15:24:22;;;;;;;50.40;19.35;;;;;;;2.01;100.00;100934.41;15299109;19;20002;-78
2022/01/16 15:29:24;;;;;;;48.00;20.52;;;;;;;2.06;100.00;100940.19;15297466;19;20007;-78
2022/01/16 15:34:26;;;;;;;46.22;21.13;;;;;;;2.09;100.00;100937.16;15296587;19;20010;-78
2022/01/16 15:39:48;;;;;;;44.28;22.42;;;;;;;2.09;100.00;100948.03;15301648;19;20026;-79
2022/01/16 15:44:49;;;;;;;48.58;20.80;;;;;;;2.11;100.00;100961.44;15292984;19;20011;-77
2022/01/16 15:49:51;;;;;;;47.05;21.08;;;;;;;2.23;100.00;100965.53;15300036;19;20490;-78
2022/01/16 15:54:53;;;;;;;47.72;22.10;;;;;;;2.16;100.00;100976.22;15300861;19;20013;-78
2022/01/16 15:59:55;;;;;;;47.10;20.60;;;;;;;2.08;100.00;100972.63;15301813;19;20069;-79
2022/01/16 16:04:56;;;;;;;49.35;21.73;;;;;;;2.01;100.00;100975.19;15292650;19;20007;-77
2022/01/16 16:09:58;;;;;;;53.95;22.73;;;;;;;1.99;100.00;100980.81;15297162;19;20038;-78
2022/01/16 16:15:00;;;;;;;53.90;21.55;;;;;;;1.94;100.00;100980.44;15231777;19;20009;-78
2022/01/16 16:20:05;;;;;;;53.92;22.25;;;;;;;1.91;100.00;100997.06;15237519;19;140829;-79
2022/01/16 16:25:07;;;;;;;56.00;23.50;;;;;;;1.93;100.00;101014.03;15293728;19;20014;-78
2022/01/16 16:30:14;;;;;;;59.75;24.80;;;;;;;1.89;100.00;101020.00;15290659;19;20010;-79
2022/01/16 16:35:16;;;;;;;67.43;25.67;;;;;;;1.82;100.00;101027.97;15291721;19;20006;-79
2022/01/16 16:40:18;;;;;;;58.38;24.10;;;;;;;1.78;100.00;101032.84;15287261;19;20024;-78
2022/01/16 16:45:23;;;;;;;57.65;24.63;;;;;;;1.79;100.00;101037.28;15288112;19;20011;-79
2022/01/16 16:50:29;;;;;;;57.38;22.13;;;;;;;1.77;100.00;101036.59;15290199;19;20023;-79
2022/01/16 16:55:33;;;;;;;62.28;25.15;;;;;;;1.69;100.00;101030.25;15288513;19;20003;-78
2022/01/16 17:00:35;;;;;;;61.72;24.50;;;;;;;1.69;100.00;101032.97;15294296;19;20157;-79
2022/01/16 17:05:37;;;;;;;68.70;25.98;;;;;;;1.56;100.00;101033.44;15289715;19;20006;-80
2022/01/16 17:10:39;;;;;;;69.35;24.83;;;;;;;1.54;100.00;101040.88;15295056;19;20470;-78
2022/01/16 17:15:41;;;;;;;69.15;23.92;;;;;;;1.52;100.00;101042.91;15290709;19;20007;-79
2022/01/16 17:20:42;;;;;;;65.97;23.40;;;;;;;1.51;100.00;101035.75;15290073;19;20508;-80
2022/01/16 17:25:44;;;;;;;62.38;23.55;;;;;;;1.54;100.00;101036.28;15288311;19;20018;-80
2022/01/16 17:30:47;;;;;;;61.58;24.02;;;;;;;1.65;100.00;101031.59;15282764;19;20070;-81
2022/01/16 17:35:49;;;;;;;65.40;23.45;;;;;;;1.60;100.00;101034.78;15282076;19;20024;-80
2022/01/16 17:40:50;;;;;;;64.18;25.10;;;;;;;1.68;100.00;101037.56;15293219;19;20011;-80
2022/01/16 17:45:52;;;;;;;65.63;25.65;;;;;;;1.76;100.00;101044.91;15286380;19;20058;-80
2022/01/16 17:50:54;;;;;;;58.45;25.45;;;;;;;1.80;100.00;101051.72;15288182;19;20010;-80
2022/01/16 17:55:56;;;;;;;64.40;24.90;;;;;;;1.83;100.00;101054.97;15289561;19;20007;-80
2022/01/16 18:00:58;;;;;;;62.30;22.80;;;;;;;1.90;100.00;101049.72;15294181;19;20006;-81
2022/01/16 18:06:00;;;;;;;53.67;22.70;;;;;;;1.81;100.00;101054.28;15298214;19;20021;-80
2022/01/16 18:11:02;;;;;;;53.67;23.40;;;;;;;1.86;100.00;101047.50;15298954;19;20346;-81
2022/01/16 18:16:04;;;;;;;57.58;23.70;;;;;;;1.80;100.00;101060.72;15296825;19;20607;-79
2022/01/16 18:21:06;;;;;;;53.38;22.45;;;;;;;1.92;100.00;101072.16;15301446;19;20393;-81
2022/01/16 18:26:09;;;;;;;49.25;21.17;;;;;;;1.94;100.00;101083.72;15301571;19;20113;-80
2022/01/16 18:31:10;;;;;;;53.60;22.97;;;;;;;1.94;100.00;101088.31;15295201;19;20032;-79
2022/01/16 18:36:13;;;;;;;46.45;20.02;;;;;;;1.97;100.00;101093.44;15300813;19;20062;-80
2022/01/16 18:41:14;;;;;;;54.53;23.38;;;;;;;1.94;100.00;101082.88;15298673;19;20007;-80
2022/01/16 18:46:22;;;;;;;53.00;22.25;;;;;;;1.99;100.00;101096.81;15298482;19;20011;-79
2022/01/16 18:51:27;;;;;;;50.28;22.13;;;;;;;1.98;100.00;101097.84;15298198;19;20010;-79
2022/01/16 18:56:29;;;;;;;50.13;21.40;;;;;;;1.99;100.00;101099.53;15293625;19;20543;-80
2022/01/16 19:01:33;;;;;;;57.13;22.25;;;;;;;2.07;100.00;101107.75;15288194;19;20015;-81
2022/01/16 19:06:35;;;;;;;51.05;21.73;;;;;;;2.01;100.00;101116.56;15293692;19;20362;-80
2022/01/16 19:11:36;;;;;;;48.97;21.20;;;;;;;2.06;100.00;101114.22;15294184;19;20027;-82
2022/01/16 19:16:40;;;;;;;55.47;23.88;;;;;;;2.10;100.00;101122.88;15292212;19;20035;-81
2022/01/16 19:21:42;;;;;;;;;;;;;;;2.09;100.00;101124.75;15294209;19;20104;-81
2022/01/16 19:26:44;;;;;;;57.70;23.02;;;;;;;2.03;100.00;101122.69;15292270;19;19994;-80
2022/01/16 19:31:45;;;;;;;45.90;22.35;;;;;;;2.04;100.00;101119.78;15291154;19;20112;-81
2022/01/16 19:36:49;;;;;;;52.80;20.92;;;;;;;2.02;100.00;101121.84;15291277;19;20011;-80
2022/01/16 19:42:00;;;;;;;49.88;21.33;;;;;;;2.04;100.00;101127.09;15294150;19;20468;-80
2022/01/16 19:47:03;;;;;;;51.40;22.17;;;;;;;2.12;100.00;101138.03;15292363;19;20003;-81
2022/01/16 19:52:05;;;;;;;46.03;20.30;;;;;;;2.16;100.00;101144.84;15294753;19;20324;-80
2022/01/16 19:57:07;;;;;;;45.28;20.20;;;;;;;2.19;100.00;101151.81;15292045;19;21250;-80
2022/01/16 20:02:09;;;;;;;46.03;20.00;;;;;;;2.23;100.00;101177.66;15295126;19;20010;-81
2022/01/16 20:07:12;;;;;;;43.53;20.05;;;;;;;2.21;100.00;101168.84;15295009;19;20097;-79
2022/01/16 20:12:13;;;;;;;41.95;20.10;;;;;;;2.25;100.00;101171.06;15291237;19;20020;-80
2022/01/16 20:17:15;;;;;;;42.58;19.02;;;;;;;2.18;100.00;101174.59;15292588;19;20540;-79
2022/01/16 20:22:17;;;;;;;44.67;20.50;;;;;;;2.22;100.00;101136.03;15285367;19;20009;-79
2022/01/16 20:27:18;;;;;;;39.10;19.83;;;;;;;2.15;100.00;101132.25;15292255;19;20077;-80
2022/01/16 20:32:20;;;;;;;45.80;19.20;;;;;;;2.15;100.00;101164.03;15287345;19;20031;-79
2022/01/16 20:37:22;;;;;;;43.15;19.40;;;;;;;2.21;100.00;101156.09;15293374;19;20394;-81
2022/01/16 20:42:24;;;;;;;41.00;20.70;;;;;;;2.27;100.00;101176.34;15294249;19;20026;-80
2022/01/16 20:47:25;;;;;;;40.38;18.70;;;;;;;2.23;100.00;101173.09;15295877;19;20058;-80
2022/01/16 20:52:28;;;;;;;41.83;19.80;;;;;;;2.23;100.00;101164.94;15300242;19;20017;-80
2022/01/16 20:57:31;;;;;;;43.23;20.67;;;;;;;2.23;100.00;101172.22;15287154;19;20016;-79
2022/01/16 21:02:33;;;;;;;45.57;18.83;;;;;;;2.23;100.00;101166.78;15287859;19;20002;-79
2022/01/16 21:07:37;;;;;;;46.00;20.17;;;;;;;2.28;100.00;101169.88;15292468;19;20009;-79
2022/01/16 21:12:39;;;;;;;41.63;18.95;;;;;;;2.26;100.00;101166.47;15295218;19;20017;-79
2022/01/16 21:17:40;;;;;;;45.78;19.70;;;;;;;2.24;100.00;101155.75;15286413;19;20074;-79
2022/01/16 21:22:42;;;;;;;44.25;18.80;;;;;;;2.28;100.00;101143.53;15294067;19;20010;-81
2022/01/16 21:27:44;;;;;;;43.75;21.92;;;;;;;2.26;100.00;101137.41;15288820;19;22175;-81